createdAt,value
2022-08-17T00:01:53.992Z,100.00
2022-08-17T00:03:55.593Z,100.00
2022-08-17T00:05:58.531Z,100.00
2022-08-17T00:08:00.274Z,100.00
2022-08-17T00:10:01.805Z,100.00
2022-08-17T00:12:42.595Z,100.00
2022-08-17T00:14:26.910Z,100.00
2022-08-17T00:16:56.047Z,100.00
2022-08-17T00:19:00.918Z,100.00
2022-08-17T00:21:10.838Z,100.00
2022-08-17T00:23:13.123Z,100.00
2022-08-17T00:25:15.847Z,100.00
2022-08-17T00:27:18.960Z,100.00
2022-08-17T00:29:20.475Z,100.00
2022-08-17T00:31:21.990Z,100.00
2022-08-17T00:33:24.374Z,100.00
2022-08-17T00:35:26.255Z,100.00
2022-08-17T00:37:27.755Z,100.00
2022-08-17T00:39:29.365Z,100.00
2022-08-17T00:41:31.039Z,100.00
2022-08-17T00:43:35.568Z,100.00
2022-08-17T00:45:37.049Z,100.00
2022-08-17T00:47:38.544Z,100.00
2022-08-17T00:49:40.061Z,100.00
2022-08-17T00:51:42.563Z,100.00
2022-08-17T00:53:44.589Z,100.00
2022-08-17T00:55:46.555Z,100.00
2022-08-17T00:57:51.261Z,100.00
2022-08-17T01:00:03.190Z,100.00
2022-08-17T01:02:05.353Z,100.00
2022-08-17T01:04:06.871Z,100.00
2022-08-17T01:06:08.412Z,100.00
2022-08-17T01:08:11.205Z,100.00
2022-08-17T01:11:00.251Z,100.00
2022-08-17T01:12:34.393Z,100.00
2022-08-17T01:14:36.200Z,100.00
2022-08-17T01:16:39.051Z,100.00
2022-08-17T01:18:40.573Z,100.00
2022-08-17T01:20:48.122Z,100.00
2022-08-17T01:22:51.807Z,100.00
2022-08-17T01:24:57.162Z,100.00
2022-08-17T01:26:58.661Z,100.00
2022-08-17T01:29:01.562Z,100.00
2022-08-17T01:31:03.443Z,100.00
2022-08-17T01:33:04.987Z,100.00
2022-08-17T01:35:07.290Z,100.00
2022-08-17T01:37:08.802Z,100.00
2022-08-17T01:39:12.168Z,100.00
2022-08-17T01:41:14.208Z,100.00
2022-08-17T01:43:16.351Z,100.00
2022-08-17T01:45:18.625Z,100.00
2022-08-17T01:47:20.161Z,100.00
2022-08-17T01:49:21.666Z,100.00
2022-08-17T01:51:23.521Z,100.00
2022-08-17T01:53:26.425Z,100.00
2022-08-17T01:55:32.645Z,100.00
2022-08-17T01:57:34.532Z,100.00
2022-08-17T01:59:36.108Z,100.00
2022-08-17T02:01:37.696Z,100.00
2022-08-17T02:03:39.230Z,100.00
2022-08-17T02:05:40.861Z,100.00
2022-08-17T02:07:59.955Z,100.00
2022-08-17T02:10:02.320Z,100.00
2022-08-17T02:12:38.358Z,100.00
2022-08-17T02:14:27.650Z,100.00
2022-08-17T02:16:29.128Z,100.00
2022-08-17T02:18:39.604Z,100.00
2022-08-17T02:20:42.782Z,100.00
2022-08-17T02:22:45.079Z,100.00
2022-08-17T02:25:01.187Z,100.00
2022-08-17T02:27:05.084Z,100.00
2022-08-17T02:29:06.563Z,100.00
2022-08-17T02:31:08.519Z,100.00
2022-08-17T02:33:10.040Z,100.00
2022-08-17T02:35:11.532Z,100.00
2022-08-17T02:37:13.339Z,100.00
2022-08-17T02:39:14.818Z,100.00
2022-08-17T02:41:16.323Z,100.00
2022-08-17T02:43:19.189Z,100.00
2022-08-17T02:45:22.198Z,100.00
2022-08-17T02:47:24.023Z,100.00
2022-08-17T02:49:25.531Z,100.00
2022-08-17T02:51:27.214Z,100.00
2022-08-17T02:53:33.681Z,100.00
2022-08-17T02:55:38.777Z,100.00
2022-08-17T02:57:40.627Z,100.00
2022-08-17T02:59:48.788Z,100.00
2022-08-17T03:01:50.759Z,100.00
2022-08-17T03:03:52.299Z,100.00
2022-08-17T03:05:53.809Z,100.00
2022-08-17T03:07:55.342Z,100.00
2022-08-17T03:09:56.834Z,100.00
2022-08-17T03:12:03.358Z,100.00
2022-08-17T03:14:04.902Z,100.00
2022-08-17T03:16:08.118Z,100.00
2022-08-17T03:18:09.607Z,100.00
2022-08-17T03:20:20.755Z,100.00
2022-08-17T03:22:35.651Z,100.00
2022-08-17T03:24:38.631Z,100.00
2022-08-17T03:26:41.480Z,100.00
2022-08-17T03:28:42.992Z,100.00
2022-08-17T03:30:44.501Z,100.00
2022-08-17T03:32:48.122Z,100.00
2022-08-17T03:34:49.646Z,100.00
2022-08-17T03:36:51.152Z,100.00
2022-08-17T03:38:52.664Z,100.00
2022-08-17T03:40:57.975Z,100.00
2022-08-17T03:43:03.942Z,100.00
2022-08-17T03:45:06.713Z,100.00
2022-08-17T03:47:08.219Z,100.00
2022-08-17T03:49:11.209Z,100.00
2022-08-17T03:51:14.873Z,100.00
2022-08-17T03:53:17.350Z,100.00
2022-08-17T03:55:18.895Z,100.00
2022-08-17T03:57:20.434Z,100.00
2022-08-17T03:59:22.540Z,100.00
2022-08-17T04:01:24.379Z,100.00
2022-08-17T04:03:25.970Z,100.00
2022-08-17T04:05:28.912Z,100.00
2022-08-17T04:07:30.779Z,100.00
2022-08-17T04:09:32.311Z,100.00
2022-08-17T04:11:34.019Z,100.00
2022-08-17T04:13:35.525Z,100.00
2022-08-17T04:15:37.079Z,100.00
2022-08-17T04:17:38.585Z,100.00
2022-08-17T04:19:40.092Z,100.00
2022-08-17T04:21:42.963Z,100.00
2022-08-17T04:23:44.504Z,100.00
2022-08-17T04:25:46.548Z,100.00
2022-08-17T04:27:48.089Z,100.00
2022-08-17T04:29:54.851Z,100.00
2022-08-17T04:31:57.410Z,100.00
2022-08-17T04:33:58.903Z,100.00
2022-08-17T04:36:01.953Z,100.00
2022-08-17T04:38:04.901Z,100.00
2022-08-17T04:40:06.852Z,100.00
2022-08-17T04:42:09.041Z,100.00
2022-08-17T04:44:10.561Z,100.00
2022-08-17T04:46:13.703Z,100.00
2022-08-17T04:48:15.191Z,100.00
2022-08-17T04:50:17.722Z,100.00
2022-08-17T04:52:42.652Z,100.00
2022-08-17T04:54:42.067Z,100.00
2022-08-17T04:56:43.706Z,100.00
2022-08-17T04:58:46.081Z,100.00
2022-08-17T05:00:47.661Z,100.00
2022-08-17T05:02:49.850Z,100.00
2022-08-17T05:04:51.945Z,100.00
2022-08-17T05:06:53.556Z,100.00
2022-08-17T05:08:55.091Z,100.00
2022-08-17T05:10:57.942Z,100.00
2022-08-17T05:12:59.476Z,100.00
2022-08-17T05:15:00.981Z,100.00
2022-08-17T05:17:07.223Z,100.00
2022-08-17T05:19:12.597Z,100.00
2022-08-17T05:21:14.260Z,100.00
2022-08-17T05:23:16.807Z,100.00
2022-08-17T05:25:18.985Z,100.00
2022-08-17T05:27:30.842Z,100.00
2022-08-17T05:29:37.020Z,100.00
2022-08-17T05:31:38.623Z,100.00
2022-08-17T05:33:44.392Z,100.00
2022-08-17T05:35:48.564Z,100.00
2022-08-17T05:37:50.114Z,100.00
2022-08-17T05:39:52.111Z,100.00
2022-08-17T05:41:53.661Z,100.00
2022-08-17T05:43:56.832Z,100.00
2022-08-17T05:46:00.769Z,100.00
2022-08-17T05:48:02.472Z,100.00
2022-08-17T05:50:09.437Z,100.00
2022-08-17T05:52:20.639Z,100.00
2022-08-17T05:54:25.992Z,100.00
2022-08-17T05:56:31.630Z,100.00
2022-08-17T05:58:36.039Z,100.00
2022-08-17T06:00:42.158Z,100.00
2022-08-17T06:02:48.866Z,100.00
2022-08-17T06:04:54.867Z,100.00
2022-08-17T06:06:58.599Z,100.00
2022-08-17T06:09:04.368Z,100.00
2022-08-17T06:11:08.813Z,100.00
2022-08-17T06:13:11.332Z,100.00
2022-08-17T06:15:16.061Z,100.00
2022-08-17T06:17:19.482Z,100.00
2022-08-17T06:19:30.596Z,100.00
2022-08-17T06:21:33.412Z,100.00
2022-08-17T06:23:36.417Z,100.00
2022-08-17T06:25:39.226Z,100.00
2022-08-17T06:27:41.362Z,100.00
2022-08-17T06:29:45.803Z,100.00
2022-08-17T06:31:47.279Z,100.00
2022-08-17T06:33:50.147Z,100.00
2022-08-17T06:35:53.038Z,100.00
2022-08-17T06:37:58.375Z,100.00
2022-08-17T06:40:03.106Z,100.00
2022-08-17T06:42:07.993Z,100.00
2022-08-17T06:44:11.056Z,100.00
2022-08-17T06:46:13.336Z,100.00
2022-08-17T06:48:15.701Z,100.00
2022-08-17T06:50:20.265Z,100.00
2022-08-17T06:52:45.974Z,100.00
2022-08-17T06:54:46.790Z,100.00
2022-08-17T06:56:54.136Z,100.00
2022-08-17T06:58:56.666Z,100.00
2022-08-17T07:00:59.238Z,100.00
2022-08-17T07:03:01.882Z,100.00
2022-08-17T07:05:03.658Z,100.00
2022-08-17T07:07:06.971Z,100.00
2022-08-17T07:09:10.327Z,100.00
2022-08-17T07:11:13.515Z,100.00
2022-08-17T07:13:27.451Z,100.00
2022-08-17T07:15:30.904Z,100.00
2022-08-17T07:17:46.574Z,100.00
2022-08-17T07:19:49.960Z,100.00
2022-08-17T07:21:52.423Z,100.00
2022-08-17T07:24:01.323Z,100.00
2022-08-17T07:26:04.286Z,100.00
2022-08-17T07:28:06.996Z,100.00
2022-08-17T07:30:11.058Z,100.00
2022-08-17T07:32:14.043Z,100.00
2022-08-17T07:34:15.522Z,100.00
2022-08-17T07:36:26.466Z,100.00
2022-08-17T07:38:31.267Z,100.00
2022-08-17T07:40:34.953Z,100.00
2022-08-17T07:42:36.503Z,100.00
2022-08-17T07:44:44.764Z,100.00
2022-08-17T07:46:49.757Z,100.00
2022-08-17T07:48:52.506Z,100.00
2022-08-17T07:50:54.028Z,100.00
2022-08-17T07:52:55.553Z,100.00
2022-08-17T07:54:57.070Z,100.00
2022-08-17T07:57:00.752Z,100.00
2022-08-17T07:59:09.613Z,100.00
2022-08-17T08:01:14.506Z,100.00
2022-08-17T08:03:21.193Z,100.00
2022-08-17T08:05:30.842Z,100.00
2022-08-17T08:07:50.648Z,100.00
2022-08-17T08:10:00.536Z,100.00
2022-08-17T08:12:21.696Z,100.00
2022-08-17T08:14:28.398Z,100.00
2022-08-17T08:16:30.332Z,100.00
2022-08-17T08:18:54.317Z,100.00
2022-08-17T08:20:55.580Z,100.00
2022-08-17T08:22:58.949Z,100.00
2022-08-17T08:25:03.797Z,100.00
2022-08-17T08:27:07.547Z,100.00
2022-08-17T08:29:13.176Z,100.00
2022-08-17T08:31:17.467Z,100.00
2022-08-17T08:33:29.976Z,100.00
2022-08-17T08:35:31.995Z,100.00
2022-08-17T08:37:44.801Z,100.00
2022-08-17T08:39:48.278Z,100.00
2022-08-17T08:41:51.225Z,100.00
2022-08-17T08:43:55.779Z,100.00
2022-08-17T08:46:00.427Z,100.00
2022-08-17T08:48:05.968Z,100.00
2022-08-17T08:50:37.377Z,100.00
2022-08-17T08:52:44.901Z,100.00
2022-08-17T08:54:47.445Z,100.00
2022-08-17T08:57:11.983Z,100.00
2022-08-17T08:59:14.411Z,100.00
2022-08-17T09:01:18.493Z,100.00
2022-08-17T09:03:31.770Z,100.00
2022-08-17T09:05:52.932Z,100.00
2022-08-17T09:07:57.676Z,100.00
2022-08-17T09:09:59.944Z,100.00
2022-08-17T09:12:03.823Z,100.00
2022-08-17T09:14:21.145Z,100.00
2022-08-17T09:16:25.522Z,100.00
2022-08-17T09:19:01.475Z,100.00
2022-08-17T09:20:50.422Z,100.00
2022-08-17T09:22:53.675Z,100.00
2022-08-17T09:24:56.745Z,100.00
2022-08-17T09:26:59.117Z,100.00
2022-08-17T09:29:01.615Z,100.00
2022-08-17T09:31:07.925Z,100.00
2022-08-17T09:33:12.161Z,100.00
2022-08-17T09:35:14.988Z,100.00
2022-08-17T09:37:18.996Z,100.00
2022-08-17T09:39:24.310Z,100.00
2022-08-17T09:41:28.595Z,100.00
2022-08-17T09:43:31.566Z,100.00
2022-08-17T09:45:34.846Z,100.00
2022-08-17T09:47:37.508Z,100.00
2022-08-17T09:49:42.816Z,100.00
2022-08-17T09:51:45.195Z,100.00
2022-08-17T09:53:46.713Z,100.00
2022-08-17T09:55:53.000Z,100.00
2022-08-17T09:57:55.991Z,100.00
2022-08-17T10:00:01.524Z,100.00
2022-08-17T10:02:05.961Z,100.00
2022-08-17T10:04:10.958Z,100.00
2022-08-17T10:06:21.621Z,100.00
2022-08-17T10:08:29.503Z,100.00
2022-08-17T10:10:32.514Z,100.00
2022-08-17T10:12:36.506Z,100.00
2022-08-17T10:14:44.140Z,100.00
2022-08-17T10:16:48.953Z,100.00
2022-08-17T10:18:54.118Z,100.00
2022-08-17T10:20:57.461Z,100.00
2022-08-17T10:23:01.471Z,100.00
2022-08-17T10:25:22.581Z,100.00
2022-08-17T10:27:25.956Z,100.00
2022-08-17T10:29:28.980Z,100.00
2022-08-17T10:31:35.384Z,100.00
2022-08-17T10:33:39.666Z,100.00
2022-08-17T10:35:42.983Z,100.00
2022-08-17T10:37:48.004Z,100.00
2022-08-17T10:39:53.175Z,100.00
2022-08-17T10:41:55.538Z,100.00
2022-08-17T10:44:40.817Z,100.00
2022-08-17T10:46:30.532Z,100.00
2022-08-17T10:48:33.499Z,100.00
2022-08-17T10:50:46.257Z,100.00
2022-08-17T10:52:47.947Z,100.00
2022-08-17T10:55:05.983Z,100.00
2022-08-17T10:57:26.386Z,100.00
2022-08-17T10:59:45.849Z,100.00
2022-08-17T11:01:55.179Z,100.00
2022-08-17T11:03:57.097Z,100.00
2022-08-17T11:06:00.307Z,100.00
2022-08-17T11:08:22.754Z,100.00
2022-08-17T11:10:30.672Z,100.00
2022-08-17T11:12:34.883Z,100.00
2022-08-17T11:14:39.750Z,100.00
2022-08-17T11:16:43.924Z,100.00
2022-08-17T11:19:05.411Z,100.00
2022-08-17T11:21:13.446Z,100.00
2022-08-17T11:23:35.532Z,100.00
2022-08-17T11:25:39.015Z,100.00
2022-08-17T11:27:40.573Z,100.00
2022-08-17T11:29:52.082Z,100.00
2022-08-17T11:31:59.362Z,100.00
2022-08-17T11:34:01.777Z,100.00
2022-08-17T11:36:06.889Z,100.00
2022-08-17T11:38:16.257Z,100.00
2022-08-17T11:40:21.966Z,100.00
2022-08-17T11:42:27.943Z,100.00
2022-08-17T11:44:32.414Z,100.00
2022-08-17T11:46:36.055Z,98.95
2022-08-17T11:48:38.516Z,94.60
2022-08-17T11:50:44.583Z,96.98
2022-08-17T11:52:47.135Z,98.70
2022-08-17T11:54:48.735Z,98.46
2022-08-17T11:56:50.626Z,100.00
2022-08-17T11:58:53.583Z,100.00
2022-08-17T12:00:56.010Z,100.00
2022-08-17T12:03:12.419Z,100.00
2022-08-17T12:05:33.276Z,100.00
2022-08-17T12:07:34.805Z,100.00
2022-08-17T12:09:38.026Z,100.00
2022-08-17T12:12:05.840Z,100.00
2022-08-17T12:14:04.327Z,100.00
2022-08-17T12:16:06.027Z,100.00
2022-08-17T12:18:07.521Z,100.00
2022-08-17T12:20:11.105Z,100.00
2022-08-17T12:22:13.120Z,100.00
2022-08-17T12:24:17.877Z,100.00
2022-08-17T12:26:19.886Z,100.00
2022-08-17T12:28:22.428Z,100.00
2022-08-17T12:30:25.793Z,100.00
2022-08-17T12:32:28.154Z,100.00
2022-08-17T12:34:34.417Z,100.00
2022-08-17T12:36:35.935Z,100.00
2022-08-17T12:38:37.559Z,96.74
2022-08-17T12:40:39.068Z,94.37
2022-08-17T12:42:40.550Z,92.48
2022-08-17T12:44:50.652Z,88.42
2022-08-17T12:46:55.299Z,91.76
2022-08-17T12:49:10.494Z,91.70
2022-08-17T12:51:11.988Z,97.63
2022-08-17T12:53:14.023Z,97.26
2022-08-17T12:55:17.987Z,100.00
2022-08-17T12:57:20.512Z,100.00
2022-08-17T12:59:29.759Z,100.00
2022-08-17T13:01:32.065Z,100.00
2022-08-17T13:03:36.670Z,100.00
2022-08-17T13:05:38.943Z,100.00
2022-08-17T13:07:40.940Z,100.00
2022-08-17T13:09:49.826Z,100.00
2022-08-17T13:11:52.728Z,96.82
2022-08-17T13:13:54.945Z,91.58
2022-08-17T13:15:57.314Z,88.17
2022-08-17T13:18:00.448Z,69.75
2022-08-17T13:20:04.145Z,69.72
2022-08-17T13:22:09.070Z,60.17
2022-08-17T13:24:14.218Z,55.54
2022-08-17T13:26:15.683Z,52.67
2022-08-17T13:28:17.283Z,53.68
2022-08-17T13:30:21.217Z,49.39
2022-08-17T13:32:23.360Z,48.24
2022-08-17T13:34:33.323Z,46.11
2022-08-17T13:36:36.367Z,46.45
2022-08-17T13:38:39.064Z,45.61
2022-08-17T13:40:45.742Z,40.33
2022-08-17T13:42:52.898Z,40.03
2022-08-17T13:44:55.453Z,39.00
2022-08-17T13:46:57.073Z,41.76
2022-08-17T13:48:59.971Z,41.68
2022-08-17T13:51:19.470Z,41.79
2022-08-17T13:53:23.617Z,40.55
2022-08-17T13:55:25.108Z,40.40
2022-08-17T13:57:26.622Z,40.64
2022-08-17T13:59:52.618Z,38.65
2022-08-17T14:01:56.021Z,37.55
2022-08-17T14:03:57.844Z,38.20
2022-08-17T14:05:59.403Z,37.79
2022-08-17T14:08:01.544Z,36.01
2022-08-17T14:10:11.483Z,34.75
2022-08-17T14:12:13.826Z,32.32
2022-08-17T14:14:15.532Z,31.33
2022-08-17T14:16:17.145Z,30.98
2022-08-17T14:18:18.637Z,30.41
2022-08-17T14:20:37.249Z,28.83
2022-08-17T14:22:40.134Z,28.71
2022-08-17T14:24:44.886Z,29.45
2022-08-17T14:26:48.006Z,29.48
2022-08-17T14:28:56.690Z,29.08
2022-08-17T14:30:58.500Z,29.13
2022-08-17T14:32:59.996Z,29.36
2022-08-17T14:35:01.773Z,28.06
2022-08-17T14:37:03.284Z,28.53
2022-08-17T14:39:05.051Z,30.56
2022-08-17T14:41:06.615Z,28.04
2022-08-17T14:43:09.504Z,25.24
2022-08-17T14:45:29.554Z,25.33
2022-08-17T14:47:33.081Z,26.45
2022-08-17T14:49:34.612Z,27.79
2022-08-17T14:51:36.138Z,27.95
2022-08-17T14:53:45.151Z,26.76
2022-08-17T14:55:47.122Z,26.42
2022-08-17T14:57:50.208Z,26.63
2022-08-17T14:59:54.772Z,27.62
2022-08-17T15:01:56.783Z,27.99
2022-08-17T15:03:58.300Z,26.99
2022-08-17T15:05:59.819Z,26.32
2022-08-17T15:08:01.487Z,28.93
2022-08-17T15:10:03.172Z,28.72
2022-08-17T15:12:04.876Z,30.07
2022-08-17T15:14:06.444Z,31.32
2022-08-17T15:16:12.122Z,31.31
2022-08-17T15:18:13.646Z,33.73
2022-08-17T15:20:15.692Z,31.86
2022-08-17T15:22:18.430Z,28.66
2022-08-17T15:24:19.957Z,27.73
2022-08-17T15:26:26.075Z,26.83
2022-08-17T15:28:27.926Z,28.99
2022-08-17T15:30:29.428Z,27.07
2022-08-17T15:32:34.813Z,26.68
2022-08-17T15:34:36.321Z,26.25
2022-08-17T15:36:37.865Z,28.59
2022-08-17T15:38:44.396Z,29.30
2022-08-17T15:40:47.053Z,29.24
2022-08-17T15:42:48.536Z,29.99
2022-08-17T15:44:50.085Z,29.76
2022-08-17T15:46:51.614Z,30.17
2022-08-17T15:48:55.023Z,31.53
2022-08-17T15:50:56.522Z,31.20
2022-08-17T15:52:58.693Z,30.04
2022-08-17T15:55:00.906Z,31.47
2022-08-17T15:57:02.392Z,32.36
2022-08-17T15:59:03.912Z,32.75
2022-08-17T16:01:16.468Z,31.64
2022-08-17T16:03:46.899Z,30.65
2022-08-17T16:05:42.659Z,29.91
2022-08-17T16:07:44.329Z,29.75
2022-08-17T16:09:45.864Z,30.74
2022-08-17T16:11:53.815Z,29.43
2022-08-17T16:13:57.320Z,28.17
2022-08-17T16:15:58.854Z,31.78
2022-08-17T16:18:00.375Z,32.50
2022-08-17T16:20:01.899Z,30.32
2022-08-17T16:22:05.499Z,29.35
2022-08-17T16:24:12.745Z,28.15
2022-08-17T16:26:15.299Z,27.23
2022-08-17T16:28:17.188Z,26.22
2022-08-17T16:30:19.446Z,26.62
2022-08-17T16:32:22.006Z,26.46
2022-08-17T16:34:33.717Z,28.01
2022-08-17T16:36:35.199Z,27.79
2022-08-17T16:38:38.080Z,27.41
2022-08-17T16:40:39.571Z,28.24
2022-08-17T16:42:41.755Z,29.93
2022-08-17T16:44:43.264Z,28.50
2022-08-17T16:46:45.578Z,29.40
2022-08-17T16:48:47.896Z,27.63
2022-08-17T16:51:03.729Z,26.18
2022-08-17T16:53:06.819Z,25.87
2022-08-17T16:55:10.172Z,28.37
2022-08-17T16:57:15.142Z,25.77
2022-08-17T16:59:30.806Z,25.21
2022-08-17T17:01:33.918Z,24.96
2022-08-17T17:03:35.588Z,23.85
2022-08-17T17:05:42.806Z,25.04
2022-08-17T17:07:47.580Z,25.19
2022-08-17T17:09:49.146Z,23.84
2022-08-17T17:11:53.262Z,24.09
2022-08-17T17:13:55.559Z,27.38
2022-08-17T17:15:57.848Z,31.58
2022-08-17T17:18:06.756Z,33.57
2022-08-17T17:20:10.382Z,36.11
2022-08-17T17:22:14.314Z,39.08
2022-08-17T17:24:17.097Z,37.59
2022-08-17T17:26:22.949Z,35.27
2022-08-17T17:28:26.921Z,35.71
2022-08-17T17:30:29.991Z,42.87
2022-08-17T17:32:34.152Z,50.76
2022-08-17T17:34:35.663Z,60.43
2022-08-17T17:36:38.278Z,66.95
2022-08-17T17:38:40.742Z,74.38
2022-08-17T17:40:43.061Z,74.08
2022-08-17T17:42:44.603Z,86.88
2022-08-17T17:44:48.982Z,76.77
2022-08-17T17:46:51.668Z,73.76
2022-08-17T17:48:53.200Z,70.81
2022-08-17T17:50:56.126Z,75.62
2022-08-17T17:52:59.458Z,88.39
2022-08-17T17:55:04.047Z,90.72
2022-08-17T17:57:07.631Z,89.81
2022-08-17T17:59:12.527Z,100.00
2022-08-17T18:01:22.901Z,94.28
2022-08-17T18:03:30.499Z,99.54
2022-08-17T18:05:34.187Z,92.00
2022-08-17T18:07:37.265Z,97.92
2022-08-17T18:10:01.426Z,100.00
2022-08-17T18:12:07.036Z,100.00
2022-08-17T18:14:15.185Z,100.00
2022-08-17T18:16:16.691Z,100.00
2022-08-17T18:18:30.688Z,100.00
2022-08-17T18:20:36.041Z,100.00
2022-08-17T18:22:53.732Z,100.00
2022-08-17T18:24:55.404Z,100.00
2022-08-17T18:26:57.495Z,100.00
2022-08-17T18:28:59.066Z,100.00
2022-08-17T18:31:11.029Z,100.00
2022-08-17T18:33:19.479Z,100.00
2022-08-17T18:35:28.653Z,100.00
2022-08-17T18:37:32.225Z,100.00
2022-08-17T18:39:33.905Z,100.00
2022-08-17T18:41:39.863Z,100.00
2022-08-17T18:43:52.954Z,100.00
2022-08-17T18:45:55.931Z,100.00
2022-08-17T18:47:57.557Z,100.00
2022-08-17T18:49:59.629Z,100.00
2022-08-17T18:52:10.959Z,100.00
2022-08-17T18:54:14.537Z,100.00
2022-08-17T18:56:26.558Z,100.00
2022-08-17T18:58:28.038Z,100.00
2022-08-17T19:00:32.802Z,100.00
2022-08-17T19:02:45.168Z,100.00
2022-08-17T19:05:08.361Z,100.00
2022-08-17T19:07:23.573Z,100.00
2022-08-17T19:09:29.595Z,100.00
2022-08-17T19:11:32.205Z,100.00
2022-08-17T19:13:35.113Z,100.00
2022-08-17T19:15:38.261Z,100.00
2022-08-17T19:17:42.713Z,100.00
2022-08-17T19:19:46.558Z,100.00
2022-08-17T19:21:50.569Z,100.00
2022-08-17T19:23:54.656Z,100.00
2022-08-17T19:25:56.608Z,100.00
2022-08-17T19:28:01.431Z,100.00
2022-08-17T19:30:08.397Z,100.00
2022-08-17T19:32:10.971Z,100.00
2022-08-17T19:34:12.634Z,100.00
2022-08-17T19:36:17.830Z,100.00
2022-08-17T19:38:22.679Z,100.00
2022-08-17T19:40:51.153Z,100.00
2022-08-17T19:42:52.234Z,100.00
2022-08-17T19:44:54.381Z,100.00
2022-08-17T19:47:00.813Z,100.00
2022-08-17T19:49:04.187Z,100.00
2022-08-17T19:51:06.743Z,100.00
2022-08-17T19:53:11.599Z,100.00
2022-08-17T19:55:20.225Z,100.00
2022-08-17T19:57:25.620Z,100.00
2022-08-17T19:59:35.933Z,100.00
2022-08-17T20:01:39.121Z,100.00
2022-08-17T20:03:43.899Z,100.00
2022-08-17T20:06:09.167Z,100.00
2022-08-17T20:08:07.927Z,100.00
2022-08-17T20:10:10.852Z,100.00
2022-08-17T20:12:13.955Z,100.00
2022-08-17T20:14:17.766Z,100.00
2022-08-17T20:16:19.270Z,100.00
2022-08-17T20:18:22.307Z,100.00
2022-08-17T20:20:27.044Z,100.00
2022-08-17T20:22:36.809Z,100.00
2022-08-17T20:24:53.520Z,100.00
2022-08-17T20:26:58.918Z,100.00
2022-08-17T20:29:05.309Z,100.00
2022-08-17T20:31:21.667Z,100.00
2022-08-17T20:33:25.766Z,100.00
2022-08-17T20:35:29.513Z,100.00
2022-08-17T20:37:31.643Z,100.00
2022-08-17T20:39:34.757Z,100.00
2022-08-17T20:41:36.365Z,100.00
2022-08-17T20:43:45.530Z,100.00
2022-08-17T20:46:01.927Z,100.00
2022-08-17T20:48:38.071Z,100.00
2022-08-17T20:50:33.658Z,100.00
2022-08-17T20:52:43.759Z,100.00
2022-08-17T20:54:49.199Z,100.00
2022-08-17T20:56:52.172Z,100.00
2022-08-17T20:58:53.714Z,100.00
2022-08-17T21:01:09.574Z,100.00
2022-08-17T21:03:47.998Z,100.00
2022-08-17T21:06:00.032Z,100.00
2022-08-17T21:08:12.365Z,100.00
2022-08-17T21:10:15.071Z,100.00
2022-08-17T21:12:31.440Z,100.00
2022-08-17T21:14:34.434Z,100.00
2022-08-17T21:16:41.098Z,100.00
2022-08-17T21:18:44.651Z,100.00
2022-08-17T21:20:47.347Z,100.00
2022-08-17T21:22:53.298Z,100.00
2022-08-17T21:24:55.948Z,100.00
2022-08-17T21:27:00.323Z,100.00
2022-08-17T21:29:29.861Z,100.00
2022-08-17T21:31:30.146Z,100.00
2022-08-17T21:33:36.211Z,100.00
2022-08-17T21:35:48.147Z,100.00
2022-08-17T21:37:50.421Z,100.00
2022-08-17T21:39:54.811Z,100.00
2022-08-17T21:41:57.353Z,100.00
2022-08-17T21:44:04.314Z,100.00
2022-08-17T21:46:06.887Z,100.00
2022-08-17T21:48:10.501Z,100.00
2022-08-17T21:50:16.990Z,100.00
2022-08-17T21:52:19.181Z,100.00
2022-08-17T21:54:24.094Z,100.00
2022-08-17T21:56:27.884Z,100.00
2022-08-17T21:58:31.420Z,100.00
2022-08-17T22:00:32.960Z,100.00
2022-08-17T22:02:34.964Z,100.00
2022-08-17T22:04:37.388Z,100.00
2022-08-17T22:06:39.741Z,100.00
2022-08-17T22:08:41.263Z,100.00
2022-08-17T22:10:43.722Z,100.00
2022-08-17T22:13:00.156Z,100.00
2022-08-17T22:15:04.348Z,100.00
2022-08-17T22:17:16.260Z,100.00
2022-08-17T22:19:17.749Z,100.00
2022-08-17T22:21:19.289Z,100.00
2022-08-17T22:23:25.872Z,100.00
2022-08-17T22:25:27.542Z,100.00
2022-08-17T22:27:43.654Z,100.00
2022-08-17T22:29:49.502Z,100.00
2022-08-17T22:31:56.162Z,100.00
2022-08-17T22:34:07.231Z,100.00
2022-08-17T22:36:09.827Z,100.00
2022-08-17T22:38:25.238Z,100.00
2022-08-17T22:40:27.734Z,100.00
2022-08-17T22:42:29.233Z,100.00
2022-08-17T22:44:31.379Z,100.00
2022-08-17T22:46:32.997Z,100.00
2022-08-17T22:48:35.871Z,100.00
2022-08-17T22:50:37.359Z,100.00
2022-08-17T22:52:39.825Z,100.00
2022-08-17T22:54:41.320Z,100.00
2022-08-17T22:56:46.984Z,100.00
2022-08-17T22:58:59.200Z,100.00
2022-08-17T23:01:15.866Z,100.00
2022-08-17T23:03:18.277Z,100.00
2022-08-17T23:05:21.684Z,100.00
2022-08-17T23:07:23.257Z,100.00
2022-08-17T23:09:24.754Z,100.00
2022-08-17T23:11:36.934Z,100.00
2022-08-17T23:13:48.787Z,100.00
2022-08-17T23:15:50.296Z,100.00
2022-08-17T23:17:51.859Z,100.00
2022-08-17T23:19:53.492Z,100.00
2022-08-17T23:21:57.154Z,100.00
2022-08-17T23:23:58.909Z,100.00
2022-08-17T23:26:00.454Z,100.00
2022-08-17T23:28:02.460Z,100.00
2022-08-17T23:30:04.166Z,100.00
2022-08-17T23:32:05.676Z,100.00
2022-08-17T23:34:09.288Z,100.00
2022-08-17T23:36:11.005Z,100.00
2022-08-17T23:38:14.094Z,100.00
2022-08-17T23:40:15.690Z,100.00
2022-08-17T23:42:17.946Z,100.00
2022-08-17T23:44:19.442Z,100.00
2022-08-17T23:46:21.785Z,100.00
2022-08-17T23:48:28.408Z,100.00
2022-08-17T23:50:37.998Z,100.00
2022-08-17T23:52:39.668Z,100.00
2022-08-17T23:54:43.832Z,100.00
2022-08-17T23:56:45.495Z,100.00
2022-08-17T23:58:47.094Z,100.00
